sensor_id;sensor_type;location;lat;lon;timestamp;P1;durP1;ratioP1;P2;durP2;ratioP2
30080;SDS011;16902;50.816;12.828;2024-03-07T00:03:59;5.75;;;5.28;;
30080;SDS011;16902;50.816;12.828;2024-03-07T00:09:00;5.60;;;5.18;;
30080;SDS011;16902;50.816;12.828;2024-03-07T00:14:03;7.80;;;6.28;;
30080;SDS011;16902;50.816;12.828;2024-03-07T00:19:07;6.90;;;6.25;;
30080;SDS011;16902;50.816;12.828;2024-03-07T00:24:09;7.70;;;6.90;;
30080;SDS011;16902;50.816;12.828;2024-03-07T00:29:10;6.88;;;6.22;;
30080;SDS011;16902;50.816;12.828;2024-03-07T00:34:15;7.00;;;6.30;;
30080;SDS011;16902;50.816;12.828;2024-03-07T00:39:26;7.82;;;7.07;;
30080;SDS011;16902;50.816;12.828;2024-03-07T00:44:27;12.40;;;7.45;;
30080;SDS011;16902;50.816;12.828;2024-03-07T00:49:29;9.73;;;5.93;;
30080;SDS011;16902;50.816;12.828;2024-03-07T00:54:31;7.90;;;6.05;;
30080;SDS011;16902;50.816;12.828;2024-03-07T00:59:33;9.73;;;6.45;;
30080;SDS011;16902;50.816;12.828;2024-03-07T01:04:35;5.55;;;5.15;;
30080;SDS011;16902;50.816;12.828;2024-03-07T01:09:37;7.10;;;6.28;;
30080;SDS011;16902;50.816;12.828;2024-03-07T01:14:38;5.63;;;5.18;;
30080;SDS011;16902;50.816;12.828;2024-03-07T01:19:40;7.90;;;6.15;;
30080;SDS011;16902;50.816;12.828;2024-03-07T01:24:42;5.72;;;5.22;;
30080;SDS011;16902;50.816;12.828;2024-03-07T01:29:44;6.88;;;6.22;;
30080;SDS011;16902;50.816;12.828;2024-03-07T01:34:46;6.13;;;5.55;;
30080;SDS011;16902;50.816;12.828;2024-03-07T01:39:48;8.35;;;5.85;;
30080;SDS011;16902;50.816;12.828;2024-03-07T01:44:49;11.43;;;5.60;;
30080;SDS011;16902;50.816;12.828;2024-03-07T01:49:51;9.23;;;6.13;;
30080;SDS011;16902;50.816;12.828;2024-03-07T01:54:53;7.50;;;6.18;;
30080;SDS011;16902;50.816;12.828;2024-03-07T01:59:56;6.30;;;5.70;;
30080;SDS011;16902;50.816;12.828;2024-03-07T02:04:58;7.60;;;5.57;;
30080;SDS011;16902;50.816;12.828;2024-03-07T02:10:00;5.80;;;5.28;;
30080;SDS011;16902;50.816;12.828;2024-03-07T02:15:03;6.47;;;5.18;;
30080;SDS011;16902;50.816;12.828;2024-03-07T02:20:05;7.85;;;6.10;;
30080;SDS011;16902;50.816;12.828;2024-03-07T02:25:09;13.85;;;6.22;;
30080;SDS011;16902;50.816;12.828;2024-03-07T02:30:11;9.00;;;5.63;;
30080;SDS011;16902;50.816;12.828;2024-03-07T02:35:13;17.55;;;8.10;;
30080;SDS011;16902;50.816;12.828;2024-03-07T02:40:17;8.40;;;5.40;;
30080;SDS011;16902;50.816;12.828;2024-03-07T02:45:18;10.00;;;6.32;;
30080;SDS011;16902;50.816;12.828;2024-03-07T02:50:20;9.30;;;5.63;;
30080;SDS011;16902;50.816;12.828;2024-03-07T02:55:24;5.80;;;5.20;;
30080;SDS011;16902;50.816;12.828;2024-03-07T03:00:25;9.00;;;6.75;;
30080;SDS011;16902;50.816;12.828;2024-03-07T03:05:28;7.38;;;5.40;;
30080;SDS011;16902;50.816;12.828;2024-03-07T03:10:31;6.25;;;4.95;;
30080;SDS011;16902;50.816;12.828;2024-03-07T03:15:34;9.70;;;6.35;;
30080;SDS011;16902;50.816;12.828;2024-03-07T03:20:36;7.60;;;6.18;;
30080;SDS011;16902;50.816;12.828;2024-03-07T03:25:41;7.47;;;6.45;;
30080;SDS011;16902;50.816;12.828;2024-03-07T03:30:43;10.07;;;5.90;;
30080;SDS011;16902;50.816;12.828;2024-03-07T03:35:45;6.43;;;4.88;;
30080;SDS011;16902;50.816;12.828;2024-03-07T03:40:47;10.30;;;6.28;;
30080;SDS011;16902;50.816;12.828;2024-03-07T03:45:49;7.68;;;5.30;;
30080;SDS011;16902;50.816;12.828;2024-03-07T03:50:51;6.68;;;5.95;;
30080;SDS011;16902;50.816;12.828;2024-03-07T03:55:54;8.18;;;5.10;;
30080;SDS011;16902;50.816;12.828;2024-03-07T04:00:56;11.93;;;7.10;;
30080;SDS011;16902;50.816;12.828;2024-03-07T04:05:59;7.05;;;4.97;;
30080;SDS011;16902;50.816;12.828;2024-03-07T04:11:01;10.73;;;6.28;;
30080;SDS011;16902;50.816;12.828;2024-03-07T04:16:03;7.32;;;5.22;;
30080;SDS011;16902;50.816;12.828;2024-03-07T04:21:05;11.60;;;4.93;;
30080;SDS011;16902;50.816;12.828;2024-03-07T04:26:10;11.98;;;7.43;;
30080;SDS011;16902;50.816;12.828;2024-03-07T04:31:13;7.50;;;5.22;;
30080;SDS011;16902;50.816;12.828;2024-03-07T04:36:15;7.03;;;5.05;;
30080;SDS011;16902;50.816;12.828;2024-03-07T04:41:16;10.95;;;5.43;;
30080;SDS011;16902;50.816;12.828;2024-03-07T04:46:19;13.10;;;6.50;;
30080;SDS011;16902;50.816;12.828;2024-03-07T04:51:21;7.40;;;4.75;;
30080;SDS011;16902;50.816;12.828;2024-03-07T04:56:23;6.93;;;4.45;;
30080;SDS011;16902;50.816;12.828;2024-03-07T05:01:24;8.70;;;5.88;;
30080;SDS011;16902;50.816;12.828;2024-03-07T05:06:26;6.15;;;4.60;;
30080;SDS011;16902;50.816;12.828;2024-03-07T05:11:31;9.70;;;5.35;;
30080;SDS011;16902;50.816;12.828;2024-03-07T05:16:34;8.60;;;5.20;;
30080;SDS011;16902;50.816;12.828;2024-03-07T05:21:36;8.18;;;5.30;;
30080;SDS011;16902;50.816;12.828;2024-03-07T05:26:44;9.32;;;5.95;;
30080;SDS011;16902;50.816;12.828;2024-03-07T05:31:46;11.38;;;5.97;;
30080;SDS011;16902;50.816;12.828;2024-03-07T05:36:48;12.93;;;5.30;;
30080;SDS011;16902;50.816;12.828;2024-03-07T05:41:50;10.45;;;6.43;;
30080;SDS011;16902;50.816;12.828;2024-03-07T05:46:52;15.43;;;6.82;;
30080;SDS011;16902;50.816;12.828;2024-03-07T05:51:53;9.52;;;6.07;;
30080;SDS011;16902;50.816;12.828;2024-03-07T05:56:55;9.82;;;6.43;;
30080;SDS011;16902;50.816;12.828;2024-03-07T06:01:56;11.18;;;6.97;;
30080;SDS011;16902;50.816;12.828;2024-03-07T06:06:58;9.10;;;7.22;;
30080;SDS011;16902;50.816;12.828;2024-03-07T06:12:01;13.20;;;7.32;;
30080;SDS011;16902;50.816;12.828;2024-03-07T06:17:16;12.55;;;6.45;;
30080;SDS011;16902;50.816;12.828;2024-03-07T06:22:23;17.65;;;8.50;;
30080;SDS011;16902;50.816;12.828;2024-03-07T06:27:25;12.23;;;7.65;;
30080;SDS011;16902;50.816;12.828;2024-03-07T06:32:38;28.42;;;9.48;;
30080;SDS011;16902;50.816;12.828;2024-03-07T06:37:40;18.50;;;8.55;;
30080;SDS011;16902;50.816;12.828;2024-03-07T06:42:42;9.13;;;7.20;;
30080;SDS011;16902;50.816;12.828;2024-03-07T06:47:44;11.73;;;7.53;;
30080;SDS011;16902;50.816;12.828;2024-03-07T06:52:46;11.35;;;9.30;;
30080;SDS011;16902;50.816;12.828;2024-03-07T06:57:48;12.63;;;8.85;;
30080;SDS011;16902;50.816;12.828;2024-03-07T07:02:50;13.55;;;7.38;;
30080;SDS011;16902;50.816;12.828;2024-03-07T07:07:52;15.75;;;8.77;;
30080;SDS011;16902;50.816;12.828;2024-03-07T07:12:53;11.35;;;6.20;;
30080;SDS011;16902;50.816;12.828;2024-03-07T07:17:56;17.05;;;9.65;;
30080;SDS011;16902;50.816;12.828;2024-03-07T07:22:58;16.98;;;8.40;;
30080;SDS011;16902;50.816;12.828;2024-03-07T07:28:02;14.38;;;9.18;;
30080;SDS011;16902;50.816;12.828;2024-03-07T07:33:06;12.48;;;8.25;;
30080;SDS011;16902;50.816;12.828;2024-03-07T07:38:08;15.43;;;8.40;;
30080;SDS011;16902;50.816;12.828;2024-03-07T07:43:12;10.73;;;7.07;;
30080;SDS011;16902;50.816;12.828;2024-03-07T07:48:26;14.52;;;9.13;;
30080;SDS011;16902;50.816;12.828;2024-03-07T07:53:28;13.40;;;7.18;;
30080;SDS011;16902;50.816;12.828;2024-03-07T07:58:31;11.05;;;8.48;;
30080;SDS011;16902;50.816;12.828;2024-03-07T08:03:32;7.70;;;6.40;;
30080;SDS011;16902;50.816;12.828;2024-03-07T08:08:34;8.40;;;7.20;;
30080;SDS011;16902;50.816;12.828;2024-03-07T08:13:36;12.65;;;7.18;;
30080;SDS011;16902;50.816;12.828;2024-03-07T08:18:38;13.95;;;7.63;;
30080;SDS011;16902;50.816;12.828;2024-03-07T08:23:39;11.13;;;8.57;;
30080;SDS011;16902;50.816;12.828;2024-03-07T08:28:42;11.65;;;7.65;;
30080;SDS011;16902;50.816;12.828;2024-03-07T08:33:44;7.80;;;7.10;;
30080;SDS011;16902;50.816;12.828;2024-03-07T08:38:46;9.43;;;7.68;;
30080;SDS011;16902;50.816;12.828;2024-03-07T08:43:48;10.68;;;7.75;;
30080;SDS011;16902;50.816;12.828;2024-03-07T08:48:50;10.85;;;8.07;;
30080;SDS011;16902;50.816;12.828;2024-03-07T08:53:54;11.70;;;7.82;;
30080;SDS011;16902;50.816;12.828;2024-03-07T08:58:55;16.70;;;7.88;;
30080;SDS011;16902;50.816;12.828;2024-03-07T09:03:57;25.63;;;9.40;;
30080;SDS011;16902;50.816;12.828;2024-03-07T09:09:01;9.13;;;8.07;;
30080;SDS011;16902;50.816;12.828;2024-03-07T09:14:02;8.70;;;7.93;;
30080;SDS011;16902;50.816;12.828;2024-03-07T09:19:10;9.13;;;7.68;;
30080;SDS011;16902;50.816;12.828;2024-03-07T09:24:15;10.75;;;7.03;;
30080;SDS011;16902;50.816;12.828;2024-03-07T09:29:18;9.10;;;8.15;;
30080;SDS011;16902;50.816;12.828;2024-03-07T09:34:20;9.93;;;8.80;;
30080;SDS011;16902;50.816;12.828;2024-03-07T09:39:22;8.13;;;7.60;;
30080;SDS011;16902;50.816;12.828;2024-03-07T09:44:24;9.07;;;8.38;;
30080;SDS011;16902;50.816;12.828;2024-03-07T09:49:29;9.38;;;8.68;;
30080;SDS011;16902;50.816;12.828;2024-03-07T09:54:31;11.25;;;9.70;;
30080;SDS011;16902;50.816;12.828;2024-03-07T09:59:33;10.25;;;9.25;;
30080;SDS011;16902;50.816;12.828;2024-03-07T10:04:37;8.48;;;7.80;;
30080;SDS011;16902;50.816;12.828;2024-03-07T10:09:46;9.73;;;8.93;;
30080;SDS011;16902;50.816;12.828;2024-03-07T10:14:49;10.57;;;9.65;;
30080;SDS011;16902;50.816;12.828;2024-03-07T10:19:58;10.98;;;10.10;;
30080;SDS011;16902;50.816;12.828;2024-03-07T10:25:02;12.27;;;11.32;;
30080;SDS011;16902;50.816;12.828;2024-03-07T10:30:05;12.90;;;12.02;;
30080;SDS011;16902;50.816;12.828;2024-03-07T10:35:09;14.38;;;13.18;;
30080;SDS011;16902;50.816;12.828;2024-03-07T10:40:12;15.75;;;14.68;;
30080;SDS011;16902;50.816;12.828;2024-03-07T10:45:20;15.73;;;14.63;;
30080;SDS011;16902;50.816;12.828;2024-03-07T11:01:01;17.63;;;16.52;;
30080;SDS011;16902;50.816;12.828;2024-03-07T11:06:07;15.98;;;15.07;;
30080;SDS011;16902;50.816;12.828;2024-03-07T11:11:13;16.95;;;15.95;;
30080;SDS011;16902;50.816;12.828;2024-03-07T11:16:15;16.30;;;15.20;;
30080;SDS011;16902;50.816;12.828;2024-03-07T11:26:41;16.70;;;15.65;;
30080;SDS011;16902;50.816;12.828;2024-03-07T11:31:43;17.20;;;16.13;;
30080;SDS011;16902;50.816;12.828;2024-03-07T11:36:47;15.95;;;15.05;;
30080;SDS011;16902;50.816;12.828;2024-03-07T11:41:51;18.00;;;16.75;;
30080;SDS011;16902;50.816;12.828;2024-03-07T11:46:53;19.05;;;17.60;;
30080;SDS011;16902;50.816;12.828;2024-03-07T11:51:55;18.70;;;17.58;;
30080;SDS011;16902;50.816;12.828;2024-03-07T11:56:59;18.92;;;17.83;;
30080;SDS011;16902;50.816;12.828;2024-03-07T12:02:01;19.25;;;17.65;;
30080;SDS011;16902;50.816;12.828;2024-03-07T12:07:02;19.65;;;18.23;;
30080;SDS011;16902;50.816;12.828;2024-03-07T12:12:07;18.30;;;17.00;;
30080;SDS011;16902;50.816;12.828;2024-03-07T12:17:10;17.98;;;16.88;;
30080;SDS011;16902;50.816;12.828;2024-03-07T12:22:13;19.80;;;18.58;;
30080;SDS011;16902;50.816;12.828;2024-03-07T12:27:16;17.95;;;16.95;;
30080;SDS011;16902;50.816;12.828;2024-03-07T12:32:17;19.23;;;17.90;;
30080;SDS011;16902;50.816;12.828;2024-03-07T12:37:19;18.95;;;17.85;;
30080;SDS011;16902;50.816;12.828;2024-03-07T12:42:28;17.77;;;16.77;;
30080;SDS011;16902;50.816;12.828;2024-03-07T12:47:30;20.50;;;19.00;;
30080;SDS011;16902;50.816;12.828;2024-03-07T12:52:32;20.15;;;18.85;;
30080;SDS011;16902;50.816;12.828;2024-03-07T12:57:33;18.98;;;17.88;;
30080;SDS011;16902;50.816;12.828;2024-03-07T13:02:35;18.23;;;17.13;;
30080;SDS011;16902;50.816;12.828;2024-03-07T13:07:37;20.38;;;19.08;;
30080;SDS011;16902;50.816;12.828;2024-03-07T13:12:38;21.52;;;20.15;;
30080;SDS011;16902;50.816;12.828;2024-03-07T13:17:43;21.42;;;20.13;;
30080;SDS011;16902;50.816;12.828;2024-03-07T13:22:46;21.45;;;20.23;;
30080;SDS011;16902;50.816;12.828;2024-03-07T13:33:09;21.77;;;20.38;;
30080;SDS011;16902;50.816;12.828;2024-03-07T13:38:12;20.83;;;19.52;;
30080;SDS011;16902;50.816;12.828;2024-03-07T13:43:14;20.75;;;19.33;;
30080;SDS011;16902;50.816;12.828;2024-03-07T13:48:16;20.50;;;19.20;;
30080;SDS011;16902;50.816;12.828;2024-03-07T13:53:19;20.95;;;19.25;;
30080;SDS011;16902;50.816;12.828;2024-03-07T14:03:43;19.65;;;18.40;;
30080;SDS011;16902;50.816;12.828;2024-03-07T14:14:49;19.05;;;17.45;;
30080;SDS011;16902;50.816;12.828;2024-03-07T14:26:12;18.00;;;16.75;;
30080;SDS011;16902;50.816;12.828;2024-03-07T14:31:43;17.27;;;16.27;;
30080;SDS011;16902;50.816;12.828;2024-03-07T14:36:52;17.40;;;16.30;;
30080;SDS011;16902;50.816;12.828;2024-03-07T14:41:58;16.98;;;15.93;;
30080;SDS011;16902;50.816;12.828;2024-03-07T14:47:05;18.75;;;17.40;;
30080;SDS011;16902;50.816;12.828;2024-03-07T14:52:09;17.63;;;16.38;;
30080;SDS011;16902;50.816;12.828;2024-03-07T14:57:13;18.20;;;16.70;;
30080;SDS011;16902;50.816;12.828;2024-03-07T15:02:20;16.70;;;15.50;;
30080;SDS011;16902;50.816;12.828;2024-03-07T15:07:22;17.10;;;15.98;;
30080;SDS011;16902;50.816;12.828;2024-03-07T15:12:26;18.23;;;16.92;;
30080;SDS011;16902;50.816;12.828;2024-03-07T15:17:28;18.73;;;17.35;;
30080;SDS011;16902;50.816;12.828;2024-03-07T15:22:30;17.25;;;15.98;;
30080;SDS011;16902;50.816;12.828;2024-03-07T15:27:34;21.17;;;19.38;;
30080;SDS011;16902;50.816;12.828;2024-03-07T15:32:41;17.65;;;16.33;;
30080;SDS011;16902;50.816;12.828;2024-03-07T15:37:48;17.42;;;16.38;;
30080;SDS011;16902;50.816;12.828;2024-03-07T15:42:51;17.73;;;16.25;;
30080;SDS011;16902;50.816;12.828;2024-03-07T15:47:56;17.90;;;16.60;;
30080;SDS011;16902;50.816;12.828;2024-03-07T15:53:00;17.42;;;16.25;;
30080;SDS011;16902;50.816;12.828;2024-03-07T15:58:02;16.75;;;15.75;;
30080;SDS011;16902;50.816;12.828;2024-03-07T16:03:08;15.82;;;14.75;;
30080;SDS011;16902;50.816;12.828;2024-03-07T16:08:13;17.30;;;15.88;;
30080;SDS011;16902;50.816;12.828;2024-03-07T16:13:17;15.32;;;14.35;;
30080;SDS011;16902;50.816;12.828;2024-03-07T16:18:19;14.48;;;13.32;;
30080;SDS011;16902;50.816;12.828;2024-03-07T16:23:25;14.77;;;13.88;;
30080;SDS011;16902;50.816;12.828;2024-03-07T16:28:28;14.93;;;13.75;;
30080;SDS011;16902;50.816;12.828;2024-03-07T16:33:30;15.75;;;14.75;;
30080;SDS011;16902;50.816;12.828;2024-03-07T16:38:33;14.43;;;13.25;;
30080;SDS011;16902;50.816;12.828;2024-03-07T16:43:36;14.55;;;13.38;;
30080;SDS011;16902;50.816;12.828;2024-03-07T16:48:39;15.63;;;14.32;;
30080;SDS011;16902;50.816;12.828;2024-03-07T16:53:41;15.63;;;14.43;;
30080;SDS011;16902;50.816;12.828;2024-03-07T16:58:43;15.52;;;13.57;;
30080;SDS011;16902;50.816;12.828;2024-03-07T17:03:45;14.70;;;13.60;;
30080;SDS011;16902;50.816;12.828;2024-03-07T17:08:47;13.52;;;12.75;;
30080;SDS011;16902;50.816;12.828;2024-03-07T17:13:49;15.40;;;14.00;;
30080;SDS011;16902;50.816;12.828;2024-03-07T17:18:51;15.13;;;13.93;;
30080;SDS011;16902;50.816;12.828;2024-03-07T17:23:54;13.18;;;12.32;;
30080;SDS011;16902;50.816;12.828;2024-03-07T17:28:56;13.82;;;12.90;;
30080;SDS011;16902;50.816;12.828;2024-03-07T17:33:58;13.10;;;12.25;;
30080;SDS011;16902;50.816;12.828;2024-03-07T17:39:00;13.80;;;12.82;;
30080;SDS011;16902;50.816;12.828;2024-03-07T17:44:03;12.65;;;11.82;;
30080;SDS011;16902;50.816;12.828;2024-03-07T17:49:09;13.93;;;12.98;;
30080;SDS011;16902;50.816;12.828;2024-03-07T17:54:12;14.73;;;13.70;;
30080;SDS011;16902;50.816;12.828;2024-03-07T17:59:16;14.25;;;13.27;;
30080;SDS011;16902;50.816;12.828;2024-03-07T18:04:22;14.00;;;12.65;;
30080;SDS011;16902;50.816;12.828;2024-03-07T18:09:25;13.38;;;12.52;;
30080;SDS011;16902;50.816;12.828;2024-03-07T18:14:30;14.13;;;13.30;;
30080;SDS011;16902;50.816;12.828;2024-03-07T18:19:35;13.70;;;12.68;;
30080;SDS011;16902;50.816;12.828;2024-03-07T18:24:37;14.75;;;13.40;;
30080;SDS011;16902;50.816;12.828;2024-03-07T18:29:39;13.07;;;12.02;;
30080;SDS011;16902;50.816;12.828;2024-03-07T18:34:41;15.38;;;14.27;;
30080;SDS011;16902;50.816;12.828;2024-03-07T18:39:43;14.80;;;13.77;;
30080;SDS011;16902;50.816;12.828;2024-03-07T18:44:46;15.25;;;14.15;;
30080;SDS011;16902;50.816;12.828;2024-03-07T18:49:51;14.27;;;12.80;;
30080;SDS011;16902;50.816;12.828;2024-03-07T18:54:55;14.50;;;13.40;;
30080;SDS011;16902;50.816;12.828;2024-03-07T18:59:58;14.23;;;13.18;;
30080;SDS011;16902;50.816;12.828;2024-03-07T19:05:00;14.45;;;13.35;;
30080;SDS011;16902;50.816;12.828;2024-03-07T19:10:08;14.32;;;13.00;;
30080;SDS011;16902;50.816;12.828;2024-03-07T19:15:18;13.70;;;12.73;;
30080;SDS011;16902;50.816;12.828;2024-03-07T19:20:22;14.70;;;13.60;;
30080;SDS011;16902;50.816;12.828;2024-03-07T19:25:24;14.38;;;12.93;;
30080;SDS011;16902;50.816;12.828;2024-03-07T19:30:26;13.35;;;12.10;;
30080;SDS011;16902;50.816;12.828;2024-03-07T19:35:32;12.52;;;11.75;;
30080;SDS011;16902;50.816;12.828;2024-03-07T19:40:34;14.98;;;13.52;;
30080;SDS011;16902;50.816;12.828;2024-03-07T19:45:40;13.82;;;12.48;;
30080;SDS011;16902;50.816;12.828;2024-03-07T19:50:43;15.52;;;14.23;;
30080;SDS011;16902;50.816;12.828;2024-03-07T19:55:47;15.05;;;13.68;;
30080;SDS011;16902;50.816;12.828;2024-03-07T20:00:50;13.68;;;12.77;;
30080;SDS011;16902;50.816;12.828;2024-03-07T20:05:52;14.35;;;11.10;;
30080;SDS011;16902;50.816;12.828;2024-03-07T20:10:55;16.08;;;14.70;;
30080;SDS011;16902;50.816;12.828;2024-03-07T20:15:59;13.63;;;12.65;;
30080;SDS011;16902;50.816;12.828;2024-03-07T20:21:02;15.88;;;14.27;;
30080;SDS011;16902;50.816;12.828;2024-03-07T20:26:05;14.43;;;13.10;;
30080;SDS011;16902;50.816;12.828;2024-03-07T20:31:06;12.57;;;11.40;;
30080;SDS011;16902;50.816;12.828;2024-03-07T20:36:10;13.65;;;12.35;;
30080;SDS011;16902;50.816;12.828;2024-03-07T20:41:12;13.73;;;12.57;;
30080;SDS011;16902;50.816;12.828;2024-03-07T20:46:15;13.10;;;12.15;;
30080;SDS011;16902;50.816;12.828;2024-03-07T20:51:17;14.10;;;13.00;;
30080;SDS011;16902;50.816;12.828;2024-03-07T20:56:20;14.05;;;12.73;;
30080;SDS011;16902;50.816;12.828;2024-03-07T21:01:22;12.23;;;11.10;;
30080;SDS011;16902;50.816;12.828;2024-03-07T21:06:25;15.20;;;11.55;;
30080;SDS011;16902;50.816;12.828;2024-03-07T21:11:28;12.73;;;11.73;;
30080;SDS011;16902;50.816;12.828;2024-03-07T21:16:34;11.82;;;10.85;;
30080;SDS011;16902;50.816;12.828;2024-03-07T21:21:36;16.13;;;12.35;;
30080;SDS011;16902;50.816;12.828;2024-03-07T21:26:38;11.95;;;11.05;;
30080;SDS011;16902;50.816;12.828;2024-03-07T21:31:40;9.55;;;8.60;;
30080;SDS011;16902;50.816;12.828;2024-03-07T21:36:42;11.13;;;9.98;;
30080;SDS011;16902;50.816;12.828;2024-03-07T21:41:45;9.13;;;8.57;;
30080;SDS011;16902;50.816;12.828;2024-03-07T21:46:48;12.68;;;10.23;;
30080;SDS011;16902;50.816;12.828;2024-03-07T21:51:49;9.52;;;8.75;;
30080;SDS011;16902;50.816;12.828;2024-03-07T21:56:51;9.88;;;9.02;;
30080;SDS011;16902;50.816;12.828;2024-03-07T22:01:54;9.55;;;8.38;;
30080;SDS011;16902;50.816;12.828;2024-03-07T22:06:56;7.15;;;6.43;;
30080;SDS011;16902;50.816;12.828;2024-03-07T22:11:58;10.48;;;7.57;;
30080;SDS011;16902;50.816;12.828;2024-03-07T22:17:01;7.78;;;7.00;;
30080;SDS011;16902;50.816;12.828;2024-03-07T22:22:06;6.63;;;5.95;;
30080;SDS011;16902;50.816;12.828;2024-03-07T22:27:08;12.45;;;7.95;;
30080;SDS011;16902;50.816;12.828;2024-03-07T22:32:11;8.52;;;7.72;;
30080;SDS011;16902;50.816;12.828;2024-03-07T22:37:14;7.07;;;6.45;;
30080;SDS011;16902;50.816;12.828;2024-03-07T22:42:17;7.85;;;7.15;;
30080;SDS011;16902;50.816;12.828;2024-03-07T22:47:19;7.37;;;6.20;;
30080;SDS011;16902;50.816;12.828;2024-03-07T22:52:23;7.60;;;6.90;;
30080;SDS011;16902;50.816;12.828;2024-03-07T22:57:25;6.95;;;6.20;;
30080;SDS011;16902;50.816;12.828;2024-03-07T23:02:27;5.07;;;4.75;;
30080;SDS011;16902;50.816;12.828;2024-03-07T23:07:29;5.73;;;5.33;;
30080;SDS011;16902;50.816;12.828;2024-03-07T23:12:31;5.97;;;5.57;;
30080;SDS011;16902;50.816;12.828;2024-03-07T23:17:33;5.63;;;5.23;;
30080;SDS011;16902;50.816;12.828;2024-03-07T23:22:35;6.75;;;6.13;;
30080;SDS011;16902;50.816;12.828;2024-03-07T23:27:36;10.80;;;7.03;;
30080;SDS011;16902;50.816;12.828;2024-03-07T23:32:38;6.43;;;5.83;;
30080;SDS011;16902;50.816;12.828;2024-03-07T23:37:41;5.80;;;4.87;;
30080;SDS011;16902;50.816;12.828;2024-03-07T23:42:43;5.60;;;5.13;;
30080;SDS011;16902;50.816;12.828;2024-03-07T23:47:47;10.67;;;7.40;;
30080;SDS011;16902;50.816;12.828;2024-03-07T23:52:49;6.63;;;6.00;;
30080;SDS011;16902;50.816;12.828;2024-03-07T23:57:51;10.37;;;7.07;;
